Terminal Aerodrome Forecast
Issued by NWS

Home | Current Version | Previous Version | Text Only | Print | Product List | Glossary On
Versions: 1 2 3 4 5 6 7 8 9 10 11 12 13
630
FTUS45 KFGZ 251726
TAFPGA
TAF
KPGA 251726Z 2518/2618 32010G20KT P6SM SCT050 BKN080
     FM252100 27020G30KT P6SM FEW045 SCT080
     FM260500 32010KT P6SM FEW250=

USA.gov is the U.S. government's official web portal to all federal, state and local government web resources and services.